Time;durP1;ratioP1;P1;durP2;ratioP2;P2;SDS_P1;SDS_P2;PMS_P1;PMS_P2;Temp;Humidity;BMP_temperature;BMP_pressure;BME280_temperature;BME280_humidity;BME280_pressure;Samples;Min_cycle;Max_cycle;Signal;HPM_P1;HPM_P2
2022/09/19 00:00:43;;;;;;;5.32;1.40;;;;;;;20.86;48.80;101793.97;5056583;28;20028;-34
2022/09/19 00:03:09;;;;;;;3.17;1.35;;;;;;;20.86;48.45;101802.88;5056809;28;20043;-31
2022/09/19 00:05:41;;;;;;;3.05;1.33;;;;;;;20.88;48.93;101794.69;5057287;28;20039;-32
2022/09/19 00:08:08;;;;;;;2.60;1.10;;;;;;;20.84;48.64;101790.50;5056624;28;20048;-45
2022/09/19 00:10:41;;;;;;;4.75;1.50;;;;;;;20.83;48.85;101794.16;5057960;28;20527;-45
2022/09/19 00:13:07;;;;;;;3.85;1.30;;;;;;;20.79;48.52;101799.78;5056832;28;20050;-34
2022/09/19 00:15:45;;;;;;;4.28;1.65;;;;;;;20.79;48.97;101791.72;5055804;28;20059;-33
2022/09/19 00:18:10;;;;;;;4.63;1.60;;;;;;;20.81;48.54;101799.66;5056486;28;20397;-32
2022/09/19 00:20:40;;;;;;;3.13;1.27;;;;;;;20.82;48.96;101801.41;5054939;28;20039;-30
2022/09/19 00:25:57;;;;;;;2.85;1.35;;;;;;;20.76;49.06;101805.38;5055196;28;20052;-31
2022/09/19 00:28:27;;;;;;;5.60;1.70;;;;;;;20.77;48.68;101806.25;5051993;28;20042;-33
2022/09/19 00:30:52;;;;;;;4.25;1.50;;;;;;;20.75;49.20;101800.97;5037185;28;20547;-33
2022/09/19 00:33:20;;;;;;;3.42;1.40;;;;;;;20.75;49.03;101802.81;5070448;27;20380;-31
2022/09/19 00:35:49;;;;;;;4.03;1.55;;;;;;;20.73;49.19;101808.31;5055724;28;20503;-32
2022/09/19 00:38:14;;;;;;;4.68;1.67;;;;;;;20.72;49.16;101801.19;5056264;28;20381;-31
2022/09/19 00:40:40;;;;;;;4.50;1.60;;;;;;;20.71;48.62;101804.84;5057257;28;21243;-32
2022/09/19 00:43:08;;;;;;;3.95;1.23;;;;;;;20.71;49.00;101804.00;5056845;28;20462;-32
2022/09/19 00:45:34;;;;;;;4.13;1.60;;;;;;;20.73;48.79;101807.44;5056011;28;20024;-35
2022/09/19 00:47:59;;;;;;;4.40;1.25;;;;;;;20.69;49.19;101811.28;5056067;28;20485;-34
2022/09/19 00:50:27;;;;;;;6.38;1.90;;;;;;;20.66;48.76;101808.84;5054823;28;20389;-33
2022/09/19 00:53:00;;;;;;;6.40;1.80;;;;;;;20.66;49.14;101825.81;5057036;28;20029;-45
2022/09/19 00:55:26;;;;;;;4.38;1.60;;;;;;;20.67;49.17;101816.78;5055262;28;20031;-44
2022/09/19 00:57:58;;;;;;;4.60;1.50;;;;;;;20.66;48.68;101812.38;5051088;28;20129;-44
2022/09/19 01:00:24;;;;;;;4.72;1.60;;;;;;;20.66;49.30;101814.22;5055344;28;20434;-44
2022/09/19 01:02:51;;;;;;;6.55;1.70;;;;;;;20.67;49.12;101818.63;5036730;28;20039;-33
2022/09/19 01:05:17;;;;;;;5.60;1.63;;;;;;;20.61;48.95;101807.34;5051749;28;20038;-44
2022/09/19 01:08:01;;;;;;;6.43;1.70;;;;;;;20.66;49.06;101803.44;5053215;28;20138;-44
2022/09/19 01:10:44;;;;;;;4.75;1.65;;;;;;;20.62;48.89;101817.09;5054388;28;20377;-33
2022/09/19 01:13:31;;;;;;;4.53;1.48;;;;;;;20.62;49.01;101811.72;5052242;28;20035;-32
2022/09/19 01:16:06;;;;;;;3.08;1.67;;;;;;;20.61;49.12;101811.84;5049753;28;20031;-34
2022/09/19 01:18:52;;;;;;;3.13;1.40;;;;;;;20.62;49.32;101806.34;5053365;28;20023;-30
2022/09/19 01:21:38;;;;;;;4.85;1.60;;;;;;;20.61;48.93;101811.84;5053646;28;20054;-43
2022/09/19 01:24:37;;;;;;;3.72;1.50;;;;;;;20.64;49.08;101822.41;5052669;28;20517;-43
2022/09/19 01:27:33;;;;;;;5.75;1.50;;;;;;;20.63;48.83;101818.00;5053578;28;20127;-46
2022/09/19 01:30:11;;;;;;;3.95;1.40;;;;;;;20.62;49.01;101822.50;5052801;28;20031;-44
2022/09/19 01:32:54;;;;;;;3.13;1.27;;;;;;;20.57;49.26;101821.97;5053092;28;20035;-44
2022/09/19 01:35:31;;;;;;;4.18;1.60;;;;;;;20.59;49.19;101822.72;5055427;28;21470;-45
2022/09/19 01:38:07;;;;;;;4.35;1.52;;;;;;;20.59;49.15;101832.63;5055441;28;20035;-33
2022/09/19 01:40:35;;;;;;;4.40;1.52;;;;;;;20.56;49.26;101828.34;5054481;28;20072;-31
2022/09/19 01:43:01;;;;;;;4.70;1.50;;;;;;;20.57;48.81;101821.97;5053402;28;20871;-31
2022/09/19 01:45:36;;;;;;;4.85;1.48;;;;;;;20.57;48.74;101821.13;5054347;28;20226;-43
2022/09/19 01:48:09;;;;;;;5.40;1.50;;;;;;;20.55;48.79;101829.31;5054790;28;20123;-43
2022/09/19 01:50:40;;;;;;;4.22;1.60;;;;;;;20.58;48.55;101837.13;5056086;28;20075;-43
2022/09/19 01:53:29;;;;;;;3.63;1.45;;;;;;;20.59;48.49;101835.34;5055410;28;20514;-31
2022/09/19 01:56:11;;;;;;;5.07;1.40;;;;;;;20.59;48.59;101840.72;5056280;28;20028;-32
2022/09/19 01:58:55;;;;;;;4.60;1.48;;;;;;;20.54;49.10;101838.34;5042700;28;20039;-31
2022/09/19 02:01:31;;;;;;;4.28;1.60;;;;;;;20.55;48.68;101841.88;5054665;28;20047;-33
2022/09/19 02:04:03;;;;;;;5.78;1.67;;;;;;;20.58;49.19;101841.69;5056408;28;20039;-43
2022/09/19 02:06:48;;;;;;;6.07;1.63;;;;;;;20.57;48.55;101838.09;5068842;27;20039;-43
2022/09/19 02:09:16;;;;;;;4.15;1.30;;;;;;;20.54;48.60;101832.97;5055338;28;20136;-32
2022/09/19 02:11:42;;;;;;;5.40;1.70;;;;;;;20.55;49.07;101836.50;5053937;28;20086;-31
2022/09/19 02:14:17;;;;;;;4.63;1.52;;;;;;;20.46;48.89;101835.31;5054723;28;20054;-43
2022/09/19 02:17:04;;;;;;;3.88;1.25;;;;;;;20.50;48.58;101835.97;5037121;28;21398;-32
2022/09/19 02:19:42;;;;;;;4.30;1.63;;;;;;;20.48;48.77;101833.38;5053012;28;20464;-43
2022/09/19 02:22:20;;;;;;;3.83;1.50;;;;;;;20.49;48.77;101848.56;5055210;28;20035;-32
2022/09/19 02:24:47;;;;;;;4.10;1.42;;;;;;;20.47;49.25;101839.72;5055262;28;20060;-31
2022/09/19 02:27:25;;;;;;;2.38;1.40;;;;;;;20.48;49.11;101844.16;5068156;27;20514;-31
2022/09/19 02:29:58;;;;;;;5.10;1.50;;;;;;;20.49;48.56;101842.31;5053601;28;20447;-44
2022/09/19 02:32:24;;;;;;;4.60;1.40;;;;;;;20.46;49.14;101838.00;5055002;28;20444;-44
2022/09/19 02:34:52;;;;;;;4.53;1.55;;;;;;;20.47;49.12;101845.13;5053237;28;20056;-43
2022/09/19 02:37:21;;;;;;;4.07;1.45;;;;;;;20.48;49.07;101846.00;5053549;28;20035;-31
2022/09/19 02:39:57;;;;;;;3.53;1.23;;;;;;;20.44;49.16;101846.19;5053113;28;20073;-36
2022/09/19 02:42:30;;;;;;;3.75;1.40;;;;;;;20.44;48.69;101842.66;5054544;28;20074;-33
2022/09/19 02:45:06;;;;;;;3.88;1.42;;;;;;;20.43;49.17;101836.41;5054412;28;20019;-43
2022/09/19 02:47:35;;;;;;;4.47;1.50;;;;;;;20.44;49.22;101845.34;5053612;28;20051;-43
2022/09/19 02:50:16;;;;;;;4.65;1.60;;;;;;;20.40;49.18;101844.69;5054628;28;20127;-43
2022/09/19 02:52:44;;;;;;;5.75;1.38;;;;;;;20.44;48.89;101845.34;5054842;28;20028;-43
2022/09/19 02:55:15;;;;;;;3.70;1.48;;;;;;;20.41;48.83;101837.47;5052274;28;20082;-32
2022/09/19 02:57:44;;;;;;;4.25;1.60;;;;;;;20.36;49.30;101835.13;5054756;28;20032;-33
2022/09/19 03:00:12;;;;;;;3.50;1.30;;;;;;;20.36;48.98;101832.44;5050553;28;20020;-31
2022/09/19 03:02:47;;;;;;;5.45;1.55;;;;;;;20.41;49.06;101834.78;5054974;28;20040;-44
2022/09/19 03:05:19;;;;;;;4.70;1.70;;;;;;;20.36;49.30;101840.50;5054308;28;20039;-33
2022/09/19 03:07:50;;;;;;;3.60;1.30;;;;;;;20.37;48.72;101835.97;5054289;28;20708;-44
2022/09/19 03:10:29;;;;;;;4.68;1.55;;;;;;;20.37;48.70;101839.53;5054618;28;20516;-44
2022/09/19 03:13:00;;;;;;;5.55;1.48;;;;;;;20.36;49.12;101842.31;5053237;28;20040;-43
2022/09/19 03:15:34;;;;;;;;;;;;;;;20.35;48.84;101836.09;5055949;28;20077;-43
2022/09/19 03:18:01;;;;;;;5.00;1.40;;;;;;;20.35;48.77;101843.31;5053939;28;20015;-32
2022/09/19 03:20:27;;;;;;;4.95;1.58;;;;;;;20.33;48.89;101843.41;5054475;28;20563;-44
2022/09/19 03:22:53;;;;;;;3.58;1.17;;;;;;;20.34;49.20;101838.91;5053558;28;20054;-43
2022/09/19 03:25:19;;;;;;;4.45;1.48;;;;;;;20.31;48.89;101839.97;5054149;28;20122;-44
2022/09/19 03:27:45;;;;;;;3.85;1.27;;;;;;;20.27;48.87;101846.53;5053013;28;20085;-32
2022/09/19 03:30:12;;;;;;;4.95;1.40;;;;;;;20.23;48.95;101845.91;5054879;28;20032;-43
2022/09/19 03:32:41;;;;;;;3.50;1.40;;;;;;;20.27;48.78;101839.31;5053164;28;20067;-43
2022/09/19 03:35:08;;;;;;;3.42;1.20;;;;;;;20.25;49.02;101845.78;5053215;28;20085;-31
2022/09/19 03:37:34;;;;;;;3.75;1.35;;;;;;;20.24;48.84;101850.31;5054506;28;20522;-43
2022/09/19 03:40:01;;;;;;;3.13;1.30;;;;;;;20.28;48.68;101846.44;5052698;28;20127;-43
2022/09/19 03:42:26;;;;;;;3.45;1.48;;;;;;;20.25;48.77;101849.31;5054605;28;20043;-43
2022/09/19 03:44:53;;;;;;;4.40;1.17;;;;;;;20.26;48.90;101844.81;5053228;28;20866;-31
2022/09/19 03:47:21;;;;;;;2.22;1.00;;;;;;;20.23;49.32;101855.78;5052293;28;20062;-43
2022/09/19 03:49:50;;;;;;;3.78;1.50;;;;;;;20.24;49.20;101854.81;5040533;28;20517;-43
2022/09/19 03:52:19;;;;;;;5.10;1.30;;;;;;;20.24;49.16;101852.13;5053976;28;20024;-43
2022/09/19 03:54:45;;;;;;;3.72;1.40;;;;;;;20.19;49.33;101859.66;5054315;28;20036;-32
2022/09/19 03:57:12;;;;;;;2.95;1.27;;;;;;;20.18;48.91;101860.59;5058002;28;20040;-31
2022/09/19 03:59:38;;;;;;;6.70;1.58;;;;;;;20.11;49.23;101862.88;5053238;28;20370;-32
2022/09/19 04:02:04;;;;;;;4.75;1.30;;;;;;;20.16;49.45;101863.41;5055991;28;20397;-32
2022/09/19 04:04:30;;;;;;;3.33;1.15;;;;;;;20.17;49.35;101859.75;5036420;28;20032;-33
2022/09/19 04:06:55;;;;;;;2.72;1.17;;;;;;;20.18;49.03;101860.59;5057616;28;20040;-32
2022/09/19 04:09:21;;;;;;;1.95;1.10;;;;;;;20.19;48.90;101865.03;5055961;28;20039;-35
2022/09/19 04:11:46;;;;;;;3.55;1.40;;;;;;;20.18;48.89;101864.19;5057267;28;20761;-36
2022/09/19 04:14:12;;;;;;;4.00;1.40;;;;;;;20.13;49.25;101866.31;5055634;28;20047;-43
2022/09/19 04:16:38;;;;;;;2.53;1.23;;;;;;;20.13;49.22;101863.63;5057284;28;20025;-46
2022/09/19 04:19:10;;;;;;;3.15;1.30;;;;;;;20.15;49.02;101869.75;5055211;28;20059;-32
2022/09/19 04:21:36;;;;;;;3.17;1.15;;;;;;;20.11;49.05;101868.25;5056344;28;20025;-34
2022/09/19 04:24:02;;;;;;;2.70;1.05;;;;;;;20.11;49.21;101865.56;5055997;28;20120;-35
2022/09/19 04:26:27;;;;;;;3.97;1.40;;;;;;;20.32;49.07;101860.53;5055350;28;20028;-33
2022/09/19 04:28:52;;;;;;;2.58;1.30;;;;;;;20.55;48.37;101871.47;5056401;28;20419;-33
2022/09/19 04:31:18;;;;;;;3.60;1.27;;;;;;;20.67;47.91;101870.63;5054855;28;20104;-33
2022/09/19 04:33:43;;;;;;;2.10;0.95;;;;;;;20.81;47.22;101874.16;5055269;28;20032;-32
2022/09/19 04:36:09;;;;;;;6.03;1.48;;;;;;;20.87;47.36;101874.59;5055500;28;20090;-32
2022/09/19 04:38:36;;;;;;;2.42;1.30;;;;;;;20.94;46.75;101883.09;5057269;28;20040;-32
2022/09/19 04:41:02;;;;;;;3.53;1.02;;;;;;;21.02;46.92;101880.69;5055211;28;20111;-33
2022/09/19 04:43:29;;;;;;;3.17;1.10;;;;;;;21.11;46.78;101881.84;5056488;28;20108;-31
2022/09/19 04:45:55;;;;;;;3.35;1.13;;;;;;;21.18;46.79;101877.75;5054813;28;20023;-32
2022/09/19 04:48:23;;;;;;;2.75;1.20;;;;;;;21.28;46.39;101886.88;5055604;28;20061;-33
2022/09/19 04:50:50;;;;;;;3.22;0.98;;;;;;;21.36;46.74;101890.84;5054848;28;20043;-33
2022/09/19 04:53:18;;;;;;;5.32;1.15;;;;;;;21.44;46.08;101888.41;5055180;28;20420;-34
2022/09/19 04:55:48;;;;;;;3.08;1.33;;;;;;;21.49;46.61;101888.09;5055895;28;20294;-42
2022/09/19 04:58:15;;;;;;;3.42;1.42;;;;;;;21.56;46.17;101892.06;5056243;28;20032;-43
2022/09/19 05:00:41;;;;;;;2.90;1.10;;;;;;;21.63;46.06;101889.78;5054202;28;20545;-44
2022/09/19 05:03:15;;;;;;;3.15;1.15;;;;;;;21.71;46.33;101895.44;5056694;28;20033;-32
2022/09/19 05:05:45;;;;;;;3.67;1.20;;;;;;;21.79;46.24;101900.25;5055148;28;20672;-30
2022/09/19 05:08:14;;;;;;;2.17;0.95;;;;;;;21.85;46.10;101903.34;5055879;28;20089;-32
2022/09/19 05:10:41;;;;;;;4.20;1.38;;;;;;;21.92;45.80;101899.22;5055006;28;20028;-33
2022/09/19 05:13:06;;;;;;;3.30;1.08;;;;;;;21.97;45.66;101890.78;5036091;28;20275;-31
2022/09/19 05:15:32;;;;;;;2.65;1.10;;;;;;;22.02;45.76;101896.66;5055471;28;20071;-42
2022/09/19 05:17:58;;;;;;;3.85;1.20;;;;;;;22.05;45.70;101896.41;5056180;28;20039;-42
2022/09/19 05:20:27;;;;;;;2.22;0.90;;;;;;;22.09;45.65;101897.06;5054605;28;20032;-43
2022/09/19 05:22:58;;;;;;;3.92;1.58;;;;;;;22.08;45.73;101904.28;5056087;28;20124;-32
2022/09/19 05:25:26;;;;;;;3.08;1.25;;;;;;;22.06;46.01;101905.41;5055597;28;20115;-42
2022/09/19 05:27:53;;;;;;;3.33;1.50;;;;;;;22.02;46.08;101907.47;5055776;28;20056;-42
2022/09/19 05:30:21;;;;;;;2.40;1.00;;;;;;;21.98;45.93;101905.94;5036459;28;20035;-42
2022/09/19 05:32:47;;;;;;;3.08;1.27;;;;;;;21.96;45.86;101915.13;5055671;28;20988;-33
2022/09/19 05:35:13;;;;;;;3.13;1.33;;;;;;;21.93;45.96;101909.03;5054218;28;20055;-42
2022/09/19 05:37:40;;;;;;;2.60;1.08;;;;;;;21.91;46.27;101918.22;5057227;28;20043;-31
2022/09/19 05:40:06;;;;;;;3.47;1.10;;;;;;;21.86;46.25;101915.84;5054300;28;20039;-30
2022/09/19 05:42:31;;;;;;;2.72;1.27;;;;;;;21.83;46.39;101915.22;5055355;28;20028;-31
2022/09/19 05:44:57;;;;;;;4.15;1.30;;;;;;;21.79;46.42;101911.91;5054621;28;20716;-43
2022/09/19 05:47:22;;;;;;;3.65;1.25;;;;;;;21.75;46.39;101916.69;5054352;28;20052;-30
2022/09/19 05:49:48;;;;;;;4.07;1.30;;;;;;;21.72;46.39;101922.28;5055076;28;20040;-42
2022/09/19 05:54:57;;;;;;;2.17;1.08;;;;;;;21.67;46.42;101921.75;5054606;28;20713;-42
2022/09/19 05:57:22;;;;;;;3.17;1.25;;;;;;;21.69;46.49;101921.66;5054495;28;20031;-46
2022/09/19 05:59:47;;;;;;;3.95;1.30;;;;;;;21.69;46.43;101919.81;5029470;28;20032;-45
2022/09/19 06:02:13;;;;;;;3.17;1.23;;;;;;;21.69;46.47;101919.81;5054240;28;20429;-45
2022/09/19 06:04:38;;;;;;;1.98;1.10;;;;;;;21.72;46.15;101934.91;5035648;28;20042;-45
2022/09/19 06:07:04;;;;;;;5.38;1.73;;;;;;;21.73;46.65;101920.47;5054179;28;20054;-32
2022/09/19 06:09:33;;;;;;;3.00;1.30;;;;;;;21.75;46.39;101930.16;5036337;28;20093;-32
2022/09/19 06:11:58;;;;;;;2.80;1.30;;;;;;;21.80;46.04;101928.94;5053789;28;20122;-42
2022/09/19 06:14:27;;;;;;;3.88;1.58;;;;;;;21.82;46.09;101935.94;5054080;28;20415;-31
2022/09/19 06:16:53;;;;;;;2.90;1.20;;;;;;;21.85;46.05;101937.53;5054671;28;20043;-33
2022/09/19 06:19:21;;;;;;;2.13;1.00;;;;;;;21.84;46.11;101931.31;5054711;28;20423;-42
2022/09/19 06:21:47;;;;;;;3.30;1.20;;;;;;;21.85;46.23;101945.63;5043879;28;20036;-43
2022/09/19 06:24:12;;;;;;;2.00;1.02;;;;;;;21.86;46.42;101940.13;5054587;28;20524;-32
2022/09/19 06:26:37;;;;;;;3.55;1.20;;;;;;;21.84;46.22;101936.69;5053327;28;20167;-33
2022/09/19 06:29:03;;;;;;;2.90;1.30;;;;;;;21.86;46.34;101953.59;5055028;28;20040;-43
2022/09/19 06:31:29;;;;;;;3.65;1.35;;;;;;;21.85;46.27;101940.25;5033943;28;20428;-43
2022/09/19 06:33:55;;;;;;;2.80;1.30;;;;;;;21.82;46.16;101954.81;5055164;28;20044;-43
2022/09/19 06:36:20;;;;;;;4.28;1.30;;;;;;;21.82;46.04;101953.97;5053244;28;20475;-44
2022/09/19 06:38:46;;;;;;;3.05;1.15;;;;;;;21.82;46.45;101957.50;5055433;28;20533;-44
2022/09/19 06:41:11;;;;;;;3.70;1.30;;;;;;;21.81;45.92;101957.63;5051799;28;20437;-43
2022/09/19 06:43:37;;;;;;;2.30;1.05;;;;;;;21.80;46.27;101956.75;5054598;28;20261;-31
2022/09/19 06:46:03;;;;;;;4.80;1.40;;;;;;;21.78;46.37;101956.03;5035554;28;20276;-31
2022/09/19 06:48:28;;;;;;;3.20;1.30;;;;;;;21.77;46.38;101963.22;5053577;28;20320;-33
2022/09/19 06:50:53;;;;;;;2.85;1.17;;;;;;;21.75;46.10;101959.81;5053742;28;20036;-44
2022/09/19 06:53:19;;;;;;;2.70;1.20;;;;;;;21.75;46.26;101961.63;5054221;28;20044;-44
2022/09/19 06:55:44;;;;;;;3.33;1.20;;;;;;;21.73;46.12;101964.44;5054218;28;20443;-43
2022/09/19 06:58:11;;;;;;;2.30;1.10;;;;;;;21.71;46.41;101966.38;5035319;28;20124;-31
2022/09/19 07:00:38;;;;;;;3.45;1.27;;;;;;;21.70;46.54;101963.81;5052812;28;20024;-32
2022/09/19 07:03:07;;;;;;;2.90;1.17;;;;;;;21.69;46.23;101970.16;5054687;28;20036;-43
2022/09/19 07:05:35;;;;;;;2.80;1.20;;;;;;;21.67;46.45;101975.69;5053430;28;20122;-31
2022/09/19 07:08:01;;;;;;;1.75;0.93;;;;;;;21.65;46.52;101979.47;5052134;28;20040;-32
2022/09/19 07:10:27;;;;;;;2.75;1.20;;;;;;;21.65;46.59;101984.84;5053322;28;20637;-32
2022/09/19 07:12:55;;;;;;;2.67;1.25;;;;;;;21.62;46.50;101983.25;5054123;28;20036;-32
2022/09/19 07:15:21;;;;;;;3.97;1.33;;;;;;;21.61;46.74;101978.81;5053174;28;20486;-44
2022/09/19 07:17:47;;;;;;;2.67;1.10;;;;;;;21.62;46.61;101990.47;5053988;28;20035;-31
2022/09/19 07:20:13;;;;;;;1.98;1.10;;;;;;;21.59;46.68;101989.72;5053289;28;20666;-31
2022/09/19 07:22:39;;;;;;;3.50;1.20;;;;;;;21.59;46.64;101996.97;5053500;28;20044;-43
2022/09/19 07:25:05;;;;;;;3.55;1.10;;;;;;;21.57;46.75;101993.50;5053131;28;20032;-43
2022/09/19 07:27:31;;;;;;;2.35;1.20;;;;;;;21.56;46.53;101991.78;5054625;28;20055;-34
2022/09/19 07:29:56;;;;;;;3.03;1.05;;;;;;;21.55;46.67;102000.88;5054746;28;20496;-33
2022/09/19 07:32:22;;;;;;;3.88;1.30;;;;;;;21.56;46.65;101997.16;5058290;28;21165;-32
2022/09/19 07:34:47;;;;;;;3.67;1.30;;;;;;;21.55;46.65;102003.56;5056071;28;20601;-43
2022/09/19 07:37:13;;;;;;;2.88;1.13;;;;;;;21.53;47.04;101995.53;5073303;27;20729;-32
2022/09/19 07:39:38;;;;;;;2.13;1.00;;;;;;;21.53;46.55;102003.63;5056976;28;20047;-32
2022/09/19 07:42:03;;;;;;;3.95;1.40;;;;;;;21.52;46.72;102001.03;5056707;28;20036;-43
2022/09/19 07:44:29;;;;;;;4.05;1.48;;;;;;;21.54;46.61;102004.50;5054948;28;20446;-44
2022/09/19 07:49:38;;;;;;;2.17;0.93;;;;;;;21.52;47.06;102009.13;5056978;28;20139;-43
2022/09/19 07:52:04;;;;;;;3.15;1.10;;;;;;;21.50;46.41;102009.25;5058933;28;21070;-44
2022/09/19 07:54:29;;;;;;;4.68;1.40;;;;;;;21.50;46.68;102005.69;5056652;28;20260;-32
2022/09/19 07:56:54;;;;;;;2.88;1.40;;;;;;;21.50;46.89;102013.78;5057679;28;20028;-31
2022/09/19 07:59:20;;;;;;;4.05;1.20;;;;;;;21.49;46.73;102017.44;5056639;28;20442;-43
2022/09/19 08:01:45;;;;;;;4.53;1.33;;;;;;;21.50;46.83;102019.16;5056040;28;20551;-43
2022/09/19 08:04:11;;;;;;;2.67;1.27;;;;;;;21.48;46.54;102013.88;5038082;28;20328;-43
2022/09/19 08:06:36;;;;;;;3.83;1.27;;;;;;;21.49;46.77;102012.06;5055824;28;20178;-31
2022/09/19 08:09:02;;;;;;;5.15;1.45;;;;;;;21.48;47.01;102015.72;5053621;28;20489;-36
2022/09/19 08:11:27;;;;;;;2.03;1.13;;;;;;;21.46;46.93;102023.91;5050990;28;20409;-32
2022/09/19 08:13:52;;;;;;;3.35;1.05;;;;;;;21.48;46.60;102019.25;5035827;28;20464;-31
2022/09/19 08:16:18;;;;;;;5.25;1.50;;;;;;;21.50;47.15;102032.66;5056319;28;20109;-43
2022/09/19 08:18:43;;;;;;;4.35;1.63;;;;;;;21.50;46.68;102036.19;5035148;28;20079;-43
2022/09/19 08:21:09;;;;;;;3.78;1.25;;;;;;;21.54;46.85;102044.91;5054599;28;20028;-32
2022/09/19 08:23:35;;;;;;;2.95;1.27;;;;;;;21.54;46.50;102034.97;5053641;28;20358;-31
2022/09/19 08:26:02;;;;;;;2.25;1.08;;;;;;;21.54;46.83;102042.22;5056333;28;20147;-36
2022/09/19 08:28:30;;;;;;;4.28;1.50;;;;;;;21.54;46.71;102042.22;5053479;28;20039;-31
2022/09/19 08:31:04;;;;;;;2.90;1.20;;;;;;;21.55;46.39;102049.38;5055642;28;20074;-32
2022/09/19 08:33:30;;;;;;;2.97;1.08;;;;;;;21.54;46.25;102051.16;5064758;28;20024;-32
2022/09/19 08:35:59;;;;;;;3.67;1.13;;;;;;;21.54;46.44;102053.84;5070573;27;20052;-31
2022/09/19 08:38:25;;;;;;;4.65;1.30;;;;;;;21.54;46.23;102056.53;5044997;28;21849;-32
2022/09/19 08:40:59;;;;;;;3.88;1.40;;;;;;;21.54;46.21;102055.69;5026887;28;20037;-31
2022/09/19 08:43:46;;;;;;;3.83;1.20;;;;;;;21.52;46.47;102052.25;5055934;28;20366;-31
2022/09/19 08:46:22;;;;;;;3.42;1.33;;;;;;;21.54;46.24;102053.00;5056342;28;20162;-43
2022/09/19 08:49:03;;;;;;;2.65;1.10;;;;;;;21.54;46.53;102056.53;5056766;28;20030;-43
2022/09/19 08:51:28;;;;;;;2.33;0.98;;;;;;;21.54;46.28;102061.94;5038142;28;20033;-31
2022/09/19 08:53:59;;;;;;;4.60;1.30;;;;;;;21.54;46.09;102063.78;5056345;28;20548;-33
2022/09/19 08:56:25;;;;;;;3.15;1.15;;;;;;;21.55;46.08;102060.16;5055741;28;20026;-33
2022/09/19 08:58:58;;;;;;;2.85;1.33;;;;;;;21.55;46.16;102066.41;5050623;28;20622;-43
2022/09/19 09:01:25;;;;;;;4.35;1.30;;;;;;;21.54;45.96;102066.47;5056489;28;20066;-43
2022/09/19 09:04:11;;;;;;;9.05;1.90;;;;;;;21.56;46.10;102061.84;5047607;28;20089;-43
2022/09/19 09:06:54;;;;;;;4.07;1.23;;;;;;;21.66;45.81;102060.22;5046845;28;20039;-42
2022/09/19 09:09:53;;;;;;;3.67;1.42;;;;;;;21.74;45.79;102071.31;5048220;28;20516;-31
2022/09/19 09:12:35;;;;;;;8.40;1.60;;;;;;;21.82;45.50;102067.22;5048985;28;20036;-43
2022/09/19 09:15:20;;;;;;;8.00;1.27;;;;;;;21.86;45.79;102066.00;5049303;28;20032;-44
2022/09/19 09:18:20;;;;;;;2.97;1.00;;;;;;;21.87;45.74;102067.72;5049803;28;20063;-43
2022/09/19 09:21:14;;;;;;;7.13;1.60;;;;;;;21.92;45.55;102070.94;5051360;28;20551;-43
2022/09/19 09:23:45;;;;;;;3.13;1.15;;;;;;;21.92;45.75;102074.50;5051208;28;20039;-43
2022/09/19 09:26:16;;;;;;;2.85;1.10;;;;;;;21.96;45.38;102075.13;5050075;28;20396;-32
2022/09/19 09:28:48;;;;;;;4.53;1.30;;;;;;;21.98;45.34;102072.31;5039062;28;20028;-43
2022/09/19 09:31:24;;;;;;;4.05;1.23;;;;;;;22.00;45.42;102076.63;5050091;28;20477;-35
2022/09/19 09:34:14;;;;;;;5.13;1.38;;;;;;;22.06;45.34;102073.47;5050533;28;20040;-31
2022/09/19 09:36:50;;;;;;;5.20;1.35;;;;;;;22.10;45.37;102082.22;5049359;28;20079;-32
2022/09/19 09:39:30;;;;;;;4.50;1.27;;;;;;;22.12;45.36;102071.28;5049930;28;20681;-35
2022/09/19 09:41:59;;;;;;;4.47;1.40;;;;;;;22.11;45.13;102078.53;5049583;28;20072;-32
2022/09/19 09:44:42;;;;;;;6.70;1.25;;;;;;;22.13;45.16;102070.31;5047791;28;20028;-34
2022/09/19 09:47:21;;;;;;;5.03;1.52;;;;;;;22.14;45.32;102072.91;5048781;28;20405;-44
2022/09/19 09:49:48;;;;;;;3.55;1.10;;;;;;;22.15;45.05;102074.63;5048577;28;20028;-44
2022/09/19 09:52:55;;;;;;;2.28;1.30;;;;;;;22.15;45.24;102076.44;5048958;28;20024;-43
2022/09/19 09:58:43;;;;;;;3.05;1.40;;;;;;;22.17;45.27;102085.31;5049375;28;20071;-43
2022/09/19 10:04:40;;;;;;;6.13;1.35;;;;;;;22.19;44.96;102089.59;5033507;28;20184;-31
2022/09/19 10:07:12;;;;;;;249.80;13.07;;;;;;;22.17;45.49;102083.44;5050497;28;20035;-44
2022/09/19 10:09:40;;;;;;;;;;;;;;;22.21;45.50;102073.28;5047984;28;20040;-43
2022/09/19 10:12:24;;;;;;;5.75;1.38;;;;;;;22.25;45.06;102082.88;5049405;28;20317;-43
2022/09/19 10:14:55;;;;;;;6.43;1.40;;;;;;;22.25;45.04;102093.66;5048224;28;20712;-32
2022/09/19 10:17:21;;;;;;;;;;;;;;;22.24;45.12;102084.72;5064504;27;20064;-43
2022/09/19 10:19:50;;;;;;;6.38;1.30;;;;;;;22.25;44.99;102085.56;5049047;28;19989;-43
2022/09/19 10:22:17;;;;;;;4.55;1.40;;;;;;;22.24;44.82;102078.47;5048812;28;20035;-43
2022/09/19 10:24:45;;;;;;;4.72;1.40;;;;;;;22.24;45.28;102087.41;5029417;28;20040;-43
2022/09/19 10:27:24;;;;;;;7.03;1.45;;;;;;;22.25;45.00;102077.47;5049721;28;20036;-31
2022/09/19 10:29:59;;;;;;;3.47;1.20;;;;;;;22.27;45.11;102083.63;5050264;28;20036;-31
2022/09/19 10:32:34;;;;;;;5.45;1.35;;;;;;;22.29;44.97;102081.69;5045478;28;20023;-32
2022/09/19 10:35:00;;;;;;;2.92;1.00;;;;;;;22.32;45.17;102080.59;5047585;28;20051;-36
2022/09/19 10:37:27;;;;;;;8.63;1.40;;;;;;;22.35;45.06;102085.75;5049328;28;20580;-35
2022/09/19 10:39:59;;;;;;;3.33;1.27;;;;;;;22.38;44.97;102093.66;5048910;28;20516;-45
2022/09/19 10:42:50;;;;;;;5.95;1.20;;;;;;;22.40;44.82;102086.31;5048454;28;20672;-35
2022/09/19 10:45:37;;;;;;;;;;;;;;;22.45;44.94;102089.50;5045615;28;20040;-36
2022/09/19 10:48:05;;;;;;;4.28;1.13;;;;;;;22.47;44.63;102089.38;5047896;28;19916;-35
2022/09/19 10:50:31;;;;;;;5.05;1.30;;;;;;;22.47;44.76;102097.47;5047884;28;20250;-34
2022/09/19 10:53:05;;;;;;;3.60;1.40;;;;;;;22.48;44.73;102093.81;5049225;28;20020;-33
2022/09/19 10:55:35;;;;;;;3.55;1.25;;;;;;;22.49;44.51;102084.75;5063575;28;20085;-32
2022/09/19 10:58:06;;;;;;;35.65;2.97;;;;;;;22.53;44.63;102095.19;5048958;28;20046;-43
2022/09/19 11:00:47;;;;;;;4.35;1.05;;;;;;;22.54;44.56;102086.09;5063728;28;20028;-43
2022/09/19 11:03:23;;;;;;;4.10;1.23;;;;;;;22.56;44.38;102084.16;5047383;28;20036;-34
2022/09/19 11:06:15;;;;;;;3.30;1.10;;;;;;;22.61;44.38;102093.75;5047853;28;20032;-31
2022/09/19 11:08:44;;;;;;;3.85;1.30;;;;;;;22.63;44.31;102098.03;5050271;28;20036;-44
2022/09/19 11:11:47;;;;;;;2.67;0.88;;;;;;;22.64;44.37;102099.78;5047608;28;20162;-42
2022/09/19 11:14:32;;;;;;;3.85;1.20;;;;;;;22.68;44.25;102097.69;5021513;28;20100;-32
2022/09/19 11:17:19;;;;;;;3.47;1.10;;;;;;;22.69;44.42;102100.28;5046096;28;20074;-31
2022/09/19 11:20:19;;;;;;;2.80;0.88;;;;;;;22.71;44.28;102098.34;5046865;28;20025;-31
2022/09/19 11:23:22;;;;;;;4.47;1.25;;;;;;;22.73;44.25;102090.09;5043219;28;20510;-43
2022/09/19 11:26:06;;;;;;;3.40;1.15;;;;;;;22.75;44.52;102094.41;5048345;28;20498;-32
2022/09/19 11:28:47;;;;;;;5.68;1.15;;;;;;;22.76;44.39;102097.97;5050693;28;20040;-44
2022/09/19 11:32:02;;;;;;;114.65;5.55;;;;;;;22.74;44.40;102103.47;5048021;28;20036;-43
2022/09/19 11:34:58;;;;;;;3.83;1.17;;;;;;;22.73;44.40;102103.59;5046252;28;20838;-35
2022/09/19 11:37:54;;;;;;;3.97;1.15;;;;;;;22.68;44.56;102103.09;5047440;28;20412;-31
2022/09/19 11:40:25;;;;;;;4.50;1.38;;;;;;;22.68;44.43;102098.56;5047513;28;20043;-32
2022/09/19 11:43:30;;;;;;;3.83;1.00;;;;;;;22.67;44.16;102099.53;5046380;28;20472;-43
2022/09/19 11:46:09;;;;;;;4.90;1.38;;;;;;;22.65;44.24;102115.00;5047643;28;20086;-31
2022/09/19 11:48:48;;;;;;;2.75;1.23;;;;;;;22.63;44.38;102097.19;5048561;28;20027;-43
2022/09/19 11:51:26;;;;;;;5.85;1.58;;;;;;;22.64;44.50;102099.78;5047919;28;20200;-43
2022/09/19 11:53:51;;;;;;;4.65;1.77;;;;;;;22.66;44.57;102102.34;5048080;28;20121;-43
2022/09/19 11:56:36;;;;;;;6.32;2.00;;;;;;;22.66;44.41;102095.13;5048408;28;20024;-32
2022/09/19 11:59:30;;;;;;;5.03;1.90;;;;;;;22.65;44.49;102097.91;5048216;28;20450;-42
2022/09/19 12:02:31;;;;;;;6.22;1.65;;;;;;;22.66;44.76;102095.13;5048691;28;20038;-31